createdAt,value
2019-05-06T00:00:16.312Z,28.2
2019-05-06T00:01:18.637Z,28.2
2019-05-06T00:02:21.323Z,28.3
2019-05-06T00:03:27.195Z,28.3
2019-05-06T00:04:29.355Z,28.2
2019-05-06T00:05:31.505Z,28.3
2019-05-06T00:06:36.195Z,28.2
2019-05-06T00:07:39.403Z,28.6
2019-05-06T00:08:43.935Z,28.5
2019-05-06T00:09:45.915Z,28.4
2019-05-06T00:10:48.513Z,28.6
2019-05-06T00:11:51.133Z,28.4
2019-05-06T00:12:55.957Z,28.5
2019-05-06T00:13:58.113Z,28.4
2019-05-06T00:15:00.533Z,28.3
2019-05-06T00:16:04.920Z,28.3
2019-05-06T00:17:07.348Z,28.4
2019-05-06T00:18:09.496Z,28.2
2019-05-06T00:19:13.739Z,28.3
2019-05-06T00:20:16.335Z,28.2
2019-05-06T00:21:18.753Z,28.4
2019-05-06T00:22:20.902Z,28.3
2019-05-06T00:23:26.377Z,28.2
2019-05-06T00:24:28.243Z,28.1
2019-05-06T00:25:30.123Z,28.2
2019-05-06T00:26:33.947Z,28.4
2019-05-06T00:27:36.863Z,28.3
2019-05-06T00:28:38.991Z,28.2
2019-05-06T00:29:41.424Z,28.5
2019-05-06T00:30:46.887Z,28.2
2019-05-06T00:31:50.420Z,28.3
2019-05-06T00:32:55.419Z,28.3
2019-05-06T00:33:57.553Z,28.3
2019-05-06T00:34:59.988Z,28.4
2019-05-06T00:36:04.530Z,28.4
2019-05-06T00:37:07.349Z,28.1
2019-05-06T00:38:10.413Z,28.2
2019-05-06T00:39:14.990Z,28.1
2019-05-06T00:40:16.841Z,28.3
2019-05-06T00:41:18.717Z,28.1
2019-05-06T00:42:21.333Z,28.1
2019-05-06T00:43:26.013Z,28
2019-05-06T00:44:28.773Z,27.9
2019-05-06T00:45:30.813Z,28.3
2019-05-06T00:46:36.754Z,28.2
2019-05-06T00:47:39.385Z,28
2019-05-06T00:48:41.513Z,28.2
2019-05-06T00:49:47.453Z,28
2019-05-06T00:50:50.533Z,28.1
2019-05-06T00:51:55.143Z,28.2
2019-05-06T00:52:57.909Z,27.9
2019-05-06T00:54:00.253Z,28.1
2019-05-06T00:55:01.595Z,28.1
2019-05-06T00:56:06.123Z,28.2
2019-05-06T00:57:08.278Z,28
2019-05-06T00:58:10.433Z,28.1
2019-05-06T00:59:16.867Z,28.2
2019-05-06T01:00:19.472Z,28.2
2019-05-06T01:01:28.737Z,28.1
2019-05-06T01:02:27.922Z,27.9
2019-05-06T01:03:30.540Z,28.1
2019-05-06T01:04:36.962Z,27.9
2019-05-06T01:05:38.855Z,27.9
2019-05-06T01:06:41.175Z,28.4
2019-05-06T01:07:46.639Z,28
2019-05-06T01:08:48.775Z,28.3
2019-05-06T01:09:51.585Z,28.3
2019-05-06T01:10:57.055Z,27.7
2019-05-06T01:11:59.205Z,28.2
2019-05-06T01:13:01.533Z,28.1
2019-05-06T01:14:05.884Z,28.2
2019-05-06T01:15:08.318Z,28.2
2019-05-06T01:16:10.745Z,28.3
2019-05-06T01:17:13.403Z,28.1
2019-05-06T01:18:15.921Z,28
2019-05-06T01:19:19.348Z,28.1
2019-05-06T01:20:21.748Z,28.2
2019-05-06T01:21:26.183Z,28
2019-05-06T01:22:28.327Z,28
2019-05-06T01:23:30.750Z,27.9
2019-05-06T01:24:35.140Z,28.3
2019-05-06T01:25:37.553Z,28.3
2019-05-06T01:26:39.701Z,28
2019-05-06T01:27:44.270Z,27.8
2019-05-06T01:28:47.410Z,28
2019-05-06T01:29:49.554Z,28
2019-05-06T01:30:53.530Z,28.2
2019-05-06T01:31:56.625Z,28
2019-05-06T01:33:03.797Z,28
2019-05-06T01:34:06.173Z,28.2
2019-05-06T01:35:08.319Z,28.2
2019-05-06T01:36:10.641Z,28
2019-05-06T01:37:16.583Z,28.1
2019-05-06T01:38:19.008Z,28
2019-05-06T01:39:21.168Z,28.1
2019-05-06T01:40:25.473Z,28.1
2019-05-06T01:41:27.638Z,27.9
2019-05-06T01:42:29.994Z,27.7
2019-05-06T01:43:37.499Z,27.9
2019-05-06T01:44:39.652Z,28
2019-05-06T01:45:41.699Z,28
2019-05-06T01:46:45.291Z,27.9
2019-05-06T01:47:47.784Z,27.8
2019-05-06T01:48:50.103Z,27.9
2019-05-06T01:49:54.825Z,28.2
2019-05-06T01:50:56.973Z,28.1
2019-05-06T01:51:59.392Z,28
2019-05-06T01:53:01.810Z,27.7
2019-05-06T01:54:06.463Z,27.9
2019-05-06T01:55:08.054Z,27.9
2019-05-06T01:56:11.053Z,27.9
2019-05-06T01:57:15.818Z,28.1
2019-05-06T01:58:17.967Z,27.9
2019-05-06T01:59:20.459Z,27.9
2019-05-06T02:00:25.076Z,28.2
2019-05-06T02:01:27.517Z,28
2019-05-06T02:02:30.543Z,28.3
2019-05-06T02:03:35.314Z,28.1
2019-05-06T02:04:37.463Z,27.7
2019-05-06T02:05:39.606Z,28
2019-05-06T02:06:43.551Z,28.3
2019-05-06T02:07:46.290Z,27.7
2019-05-06T02:08:48.715Z,28
2019-05-06T02:09:50.602Z,28.3
2019-05-06T02:10:54.998Z,28
2019-05-06T02:11:57.152Z,27.8
2019-05-06T02:13:00.293Z,27.9
2019-05-06T02:14:06.229Z,28
2019-05-06T02:15:08.836Z,27.9
2019-05-06T02:16:10.956Z,28
2019-05-06T02:17:15.484Z,28.2
2019-05-06T02:18:17.901Z,28
2019-05-06T02:19:20.258Z,27.9
2019-05-06T02:20:24.750Z,28
2019-05-06T02:21:27.147Z,28.1
2019-05-06T02:22:30.494Z,27.6
2019-05-06T02:23:35.083Z,28
2019-05-06T02:24:37.832Z,27.9
2019-05-06T02:25:40.257Z,28.1
2019-05-06T02:26:43.604Z,28.2
2019-05-06T02:27:46.358Z,28.2
2019-05-06T02:28:48.751Z,27.9
2019-05-06T02:29:51.178Z,27.8
2019-05-06T02:30:55.768Z,28
2019-05-06T02:32:15.729Z,28
2019-05-06T02:33:04.316Z,27.9
2019-05-06T02:34:06.348Z,27.8
2019-05-06T02:35:08.786Z,27.9
2019-05-06T02:36:16.587Z,27.9
2019-05-06T02:37:19.000Z,28
2019-05-06T02:38:23.253Z,27.9
2019-05-06T02:39:26.493Z,28.1
2019-05-06T02:40:29.445Z,28.3
2019-05-06T02:41:34.914Z,28.2
2019-05-06T02:42:37.334Z,28
2019-05-06T02:43:39.803Z,28.1
2019-05-06T02:44:45.263Z,28.1
2019-05-06T02:45:47.693Z,28.3
2019-05-06T02:46:53.114Z,28
2019-05-06T02:47:54.832Z,28
2019-05-06T02:48:57.261Z,28.1
2019-05-06T02:49:59.413Z,28
2019-05-06T02:51:05.352Z,27.5
2019-05-06T02:52:07.503Z,27.9
2019-05-06T02:53:13.094Z,28
2019-05-06T02:54:15.409Z,27.9
2019-05-06T02:55:17.280Z,28.1
2019-05-06T02:56:19.180Z,28
2019-05-06T02:57:25.669Z,28.1
2019-05-06T02:58:28.425Z,28.2
2019-05-06T02:59:34.845Z,28.1
2019-05-06T03:00:37.267Z,28.1
2019-05-06T03:01:42.989Z,28
2019-05-06T03:02:47.903Z,28.2
2019-05-06T03:03:49.652Z,28.1
2019-05-06T03:04:55.323Z,28.1
2019-05-06T03:05:57.989Z,27.7
2019-05-06T03:07:03.327Z,28
2019-05-06T03:08:05.114Z,28.1
2019-05-06T03:09:07.534Z,27.9
2019-05-06T03:10:13.887Z,27.9
2019-05-06T03:11:16.027Z,28.1
2019-05-06T03:12:18.329Z,28
2019-05-06T03:13:24.745Z,28
2019-05-06T03:14:26.625Z,27.9
2019-05-06T03:15:29.787Z,28.3
2019-05-06T03:16:35.232Z,27.9
2019-05-06T03:17:37.394Z,28.1
2019-05-06T03:18:39.560Z,28.4
2019-05-06T03:19:45.925Z,28
2019-05-06T03:20:47.746Z,28.1
2019-05-06T03:23:25.844Z,28.1
2019-05-06T03:24:27.725Z,28.1
2019-05-06T03:25:34.782Z,28.1
2019-05-06T03:26:37.265Z,28
2019-05-06T03:27:39.427Z,28.2
2019-05-06T03:28:46.086Z,28.1
2019-05-06T03:29:49.343Z,28
2019-05-06T03:30:56.835Z,28
2019-05-06T03:31:59.423Z,28.1
2019-05-06T03:33:39.829Z,27.9
2019-05-06T03:34:30.469Z,28.1
2019-05-06T03:35:32.126Z,28.1
2019-05-06T03:36:26.920Z,28.3
2019-05-06T03:37:25.791Z,27.7
2019-05-06T03:38:28.382Z,28.1
2019-05-06T03:39:35.384Z,27.9
2019-05-06T03:40:41.744Z,28
2019-05-06T03:41:43.651Z,27.9
2019-05-06T03:42:46.051Z,27.9
2019-05-06T03:43:48.468Z,28.2
2019-05-06T03:44:53.180Z,27.9
2019-05-06T03:45:55.864Z,28.1
2019-05-06T03:46:58.283Z,27.6
2019-05-06T03:48:05.816Z,28.1
2019-05-06T03:49:08.246Z,27.9
2019-05-06T03:50:15.146Z,28.1
2019-05-06T03:51:17.308Z,27.9
2019-05-06T03:52:19.733Z,27.9
2019-05-06T03:53:25.191Z,27.8
2019-05-06T03:54:27.613Z,28.1
2019-05-06T03:55:30.361Z,27.9
2019-05-06T03:56:35.834Z,28
2019-05-06T03:57:38.247Z,27.7
2019-05-06T03:58:44.660Z,27.8
2019-05-06T03:59:47.806Z,27.8
2019-05-06T04:00:54.914Z,27.8
2019-05-06T04:01:57.529Z,27.6
2019-05-06T04:03:03.064Z,27.6
2019-05-06T04:04:05.574Z,27.8
2019-05-06T04:05:07.994Z,28
2019-05-06T04:06:14.989Z,27.8
2019-05-06T04:07:17.145Z,27.8
2019-05-06T04:08:20.297Z,27.8
2019-05-06T04:09:26.795Z,27.7
2019-05-06T04:10:29.156Z,27.8
2019-05-06T04:11:36.292Z,27.9
2019-05-06T04:12:38.923Z,27.7
2019-05-06T04:13:45.348Z,28.1
2019-05-06T04:14:48.726Z,27.9
2019-05-06T04:15:55.635Z,27.8
2019-05-06T04:16:58.065Z,28
2019-05-06T04:18:03.515Z,28
2019-05-06T04:19:05.819Z,27.9
2019-05-06T04:20:08.896Z,27.8
2019-05-06T04:21:16.620Z,28
2019-05-06T04:22:18.703Z,27.8
2019-05-06T04:23:25.598Z,27.7
2019-05-06T04:24:28.278Z,28.1
2019-05-06T04:25:30.416Z,28
2019-05-06T04:26:35.882Z,27.8
2019-05-06T04:27:38.486Z,27.9
2019-05-06T04:28:45.053Z,27.9
2019-05-06T04:29:47.677Z,27.8
2019-05-06T04:30:50.104Z,27.9
2019-05-06T04:31:57.167Z,27.9
2019-05-06T04:32:59.574Z,27.8
2019-05-06T04:34:13.720Z,27.7
2019-05-06T04:35:13.224Z,27.7
2019-05-06T04:36:15.475Z,27.9
2019-05-06T04:37:17.628Z,28
2019-05-06T04:38:23.087Z,27.9
2019-05-06T04:39:25.126Z,27.8
2019-05-06T04:40:27.873Z,27.9
2019-05-06T04:41:33.800Z,27.7
2019-05-06T04:42:35.874Z,27.7
2019-05-06T04:43:38.291Z,27.6
2019-05-06T04:44:43.568Z,27.6
2019-05-06T04:45:45.424Z,27.7
2019-05-06T04:46:48.428Z,27.6
2019-05-06T04:47:53.443Z,27.6
2019-05-06T04:48:55.553Z,27.7
2019-05-06T04:49:58.929Z,27.6
2019-05-06T04:51:05.344Z,27.7
2019-05-06T04:52:07.504Z,27.7
2019-05-06T04:53:10.487Z,27.6
2019-05-06T04:54:16.155Z,27.7
2019-05-06T04:55:18.572Z,27.8
2019-05-06T04:56:24.993Z,27.6
2019-05-06T04:57:27.615Z,27.8
2019-05-06T04:58:29.764Z,27.8
2019-05-06T04:59:35.226Z,27.6
2019-05-06T05:00:37.649Z,27.7
2019-05-06T05:01:40.069Z,27.9
2019-05-06T05:02:46.956Z,27.8
2019-05-06T05:03:49.386Z,27.7
2019-05-06T05:04:55.801Z,27.8
2019-05-06T05:05:59.886Z,27.8
2019-05-06T05:07:03.428Z,27.6
2019-05-06T05:08:05.919Z,27.7
2019-05-06T05:09:08.339Z,27.8
2019-05-06T05:10:14.763Z,27.8
2019-05-06T05:11:17.800Z,27.8
2019-05-06T05:12:25.042Z,27.6
2019-05-06T05:13:27.640Z,27.8
2019-05-06T05:14:30.250Z,27.5
2019-05-06T05:15:34.722Z,27.9
2019-05-06T05:16:37.338Z,27.7
2019-05-06T05:17:39.736Z,27.6
2019-05-06T05:18:44.040Z,27.6
2019-05-06T05:19:47.671Z,27.7
2019-05-06T05:20:49.801Z,27.7
2019-05-06T05:21:54.000Z,27.9
2019-05-06T05:22:55.882Z,27.6
2019-05-06T05:23:58.916Z,27.8
2019-05-06T05:25:03.535Z,27.7
2019-05-06T05:26:05.792Z,28.1
2019-05-06T05:27:08.197Z,27.7
2019-05-06T05:28:14.817Z,27.8
2019-05-06T05:29:16.693Z,28
2019-05-06T05:30:18.844Z,27.7
2019-05-06T05:31:23.153Z,27.8
2019-05-06T05:32:26.907Z,27.7
2019-05-06T05:33:29.413Z,27.8
2019-05-06T05:34:39.736Z,27.7
2019-05-06T05:35:40.331Z,27.8
2019-05-06T05:36:45.796Z,27.5
2019-05-06T05:37:48.214Z,27.7
2019-05-06T05:38:52.200Z,27.6
2019-05-06T05:39:54.652Z,27.7
2019-05-06T05:40:56.792Z,28
2019-05-06T05:41:58.947Z,27.8
2019-05-06T05:43:03.473Z,27.6
2019-05-06T05:44:05.607Z,27.5
2019-05-06T05:45:07.762Z,27.7
2019-05-06T05:46:12.401Z,27.5
2019-05-06T05:47:15.178Z,27.8
2019-05-06T05:48:17.601Z,27.6
2019-05-06T05:49:21.917Z,27.7
2019-05-06T05:50:25.163Z,27.5
2019-05-06T05:51:27.587Z,27.6
2019-05-06T05:52:30.224Z,27.6
2019-05-06T05:53:34.996Z,27.5
2019-05-06T05:54:37.148Z,27.7
2019-05-06T05:55:39.499Z,27.7
2019-05-06T05:56:43.612Z,27.7
2019-05-06T05:57:46.220Z,27.6
2019-05-06T05:58:48.381Z,27.4
2019-05-06T05:59:52.805Z,27.7
2019-05-06T06:00:55.524Z,27.8
2019-05-06T06:01:57.973Z,27.7
2019-05-06T06:03:00.405Z,27.6
2019-05-06T06:04:08.156Z,27.5
2019-05-06T06:05:12.391Z,27.5
2019-05-06T06:06:14.814Z,27.6
2019-05-06T06:07:16.955Z,27.5
2019-05-06T06:08:22.058Z,27.7
2019-05-06T06:09:24.365Z,27.7
2019-05-06T06:10:26.812Z,27.4
2019-05-06T06:11:29.328Z,27.6
2019-05-06T06:12:35.544Z,27.6
2019-05-06T06:13:38.005Z,27.5
2019-05-06T06:14:40.654Z,27.6
2019-05-06T06:15:46.114Z,27.8
2019-05-06T06:16:48.258Z,27.8
2019-05-06T06:17:51.883Z,27.7
2019-05-06T06:18:54.781Z,27.6
2019-05-06T06:19:56.940Z,27.4
2019-05-06T06:20:59.096Z,27.5
2019-05-06T06:22:04.763Z,27.6
2019-05-06T06:23:07.190Z,27.6
2019-05-06T06:24:09.561Z,27.6
2019-05-06T06:25:14.242Z,27.6
2019-05-06T06:26:17.576Z,27.5
2019-05-06T06:27:23.154Z,27.5
2019-05-06T06:28:25.318Z,27.6
2019-05-06T06:29:27.193Z,27.5
2019-05-06T06:30:29.635Z,27.6
2019-05-06T06:31:35.568Z,27.6
2019-05-06T06:32:37.994Z,27.4
2019-05-06T06:33:45.083Z,27.5
2019-05-06T06:34:47.672Z,27.5
2019-05-06T06:35:51.505Z,27.4
2019-05-06T06:36:54.306Z,27.5
2019-05-06T06:37:56.736Z,27.6
2019-05-06T06:39:01.901Z,27.6
2019-05-06T06:40:04.742Z,27.5
2019-05-06T06:41:07.153Z,27.6
2019-05-06T06:42:09.017Z,27.5
2019-05-06T06:43:15.210Z,27.5
2019-05-06T06:44:17.662Z,27.5
2019-05-06T06:45:19.644Z,27.7
2019-05-06T06:46:26.590Z,27.3
2019-05-06T06:47:31.920Z,27.5
2019-05-06T06:48:34.164Z,27.5
2019-05-06T06:49:37.203Z,27.4
2019-05-06T06:50:39.550Z,27.4
2019-05-06T06:51:43.770Z,27.7
2019-05-06T06:52:46.228Z,27.5
2019-05-06T06:53:48.920Z,27.3
2019-05-06T06:54:55.568Z,27.5
2019-05-06T06:55:58.009Z,27.5
2019-05-06T06:57:08.626Z,27.5
2019-05-06T06:58:07.512Z,27.5
2019-05-06T06:59:09.674Z,27.5
2019-05-06T07:00:14.405Z,27.6
2019-05-06T07:01:17.169Z,27.4
2019-05-06T07:02:19.513Z,27.5
2019-05-06T07:03:25.454Z,27.4
2019-05-06T07:04:27.875Z,27.5
2019-05-06T07:05:34.952Z,27.6
2019-05-06T07:06:38.339Z,27.5
2019-05-06T07:07:44.747Z,27.4
2019-05-06T07:08:45.185Z,27.5
2019-05-06T07:09:47.788Z,27.5
2019-05-06T07:10:49.948Z,27.4
2019-05-06T07:11:55.375Z,27.5
2019-05-06T07:12:57.504Z,27.5
2019-05-06T07:14:02.378Z,27.4
2019-05-06T07:15:04.910Z,27.5
2019-05-06T07:16:08.062Z,27.4
2019-05-06T07:17:14.485Z,27.6
2019-05-06T07:18:16.632Z,27.6
2019-05-06T07:19:18.794Z,27.4
2019-05-06T07:20:23.025Z,27.5
2019-05-06T07:21:25.402Z,27.6
2019-05-06T07:22:28.049Z,27.6
2019-05-06T07:23:32.417Z,27.4
2019-05-06T07:24:35.147Z,27.4
2019-05-06T07:25:37.572Z,27.4
2019-05-06T07:26:39.704Z,27.6
2019-05-06T07:27:44.386Z,27.6
2019-05-06T07:28:46.804Z,27.6
2019-05-06T07:29:49.246Z,27.4
2019-05-06T07:30:54.722Z,27.5
2019-05-06T07:31:57.272Z,27.5
2019-05-06T07:33:01.236Z,27.6
2019-05-06T07:34:04.604Z,27.6
2019-05-06T07:35:06.785Z,27.6
2019-05-06T07:36:08.942Z,27.5
2019-05-06T07:37:12.484Z,27.5
2019-05-06T07:38:14.771Z,27.7
2019-05-06T07:39:17.795Z,27.5
2019-05-06T07:40:21.992Z,27.6
2019-05-06T07:41:25.055Z,27.6
2019-05-06T07:42:27.484Z,27.6
2019-05-06T07:43:34.806Z,27.4
2019-05-06T07:44:37.234Z,27.6
2019-05-06T07:45:39.664Z,27.4
2019-05-06T07:46:44.314Z,27.4
2019-05-06T07:47:46.739Z,27.6
2019-05-06T07:48:49.276Z,27.4
2019-05-06T07:49:53.825Z,27.4
2019-05-06T07:50:55.954Z,27.4
2019-05-06T07:51:58.384Z,27.6
2019-05-06T07:53:05.469Z,27.6
2019-05-06T07:54:08.235Z,27.5
2019-05-06T07:55:14.841Z,27.7
2019-05-06T07:56:17.284Z,27.6
2019-05-06T07:57:21.912Z,27.6
2019-05-06T07:58:24.084Z,27.5
2019-05-06T07:59:26.235Z,27.3
2019-05-06T08:00:28.114Z,27.4
2019-05-06T08:01:30.540Z,27.4
2019-05-06T08:02:35.192Z,27.5
2019-05-06T08:03:37.605Z,27.5
2019-05-06T08:04:42.019Z,27.3
2019-05-06T08:05:54.499Z,27.4
2019-05-06T08:06:49.513Z,27.5
2019-05-06T08:07:55.219Z,27.4
2019-05-06T08:08:57.680Z,27.6
2019-05-06T08:10:02.120Z,27.6
2019-05-06T08:11:04.149Z,27.4
2019-05-06T08:12:06.579Z,27.3
2019-05-06T08:13:09.013Z,27.5
2019-05-06T08:14:15.440Z,27.6
2019-05-06T08:15:17.861Z,27.7
2019-05-06T08:16:22.313Z,27.5
2019-05-06T08:17:24.414Z,27.6
2019-05-06T08:18:26.274Z,27.2
2019-05-06T08:19:28.428Z,27.6
2019-05-06T08:20:32.459Z,27.6
2019-05-06T08:21:35.197Z,27.4
2019-05-06T08:22:38.793Z,27.3
2019-05-06T08:23:43.432Z,27.6
2019-05-06T08:24:45.573Z,27.4
2019-05-06T08:25:47.839Z,27.4
2019-05-06T08:26:52.169Z,27.6
2019-05-06T08:27:54.394Z,27.6
2019-05-06T08:28:56.539Z,27.3
2019-05-06T08:29:58.959Z,27.5
2019-05-06T08:31:05.014Z,27.7
2019-05-06T08:32:08.052Z,27.6
2019-05-06T08:33:13.312Z,27.5
2019-05-06T08:34:15.747Z,27.5
2019-05-06T08:35:18.168Z,27.5
2019-05-06T08:36:22.535Z,27.5
2019-05-06T08:37:25.033Z,27.6
2019-05-06T08:38:27.098Z,27.5
2019-05-06T08:39:29.902Z,27.7
2019-05-06T08:40:34.604Z,27.5
2019-05-06T08:41:36.224Z,27.7
2019-05-06T08:42:38.648Z,27.4
2019-05-06T08:43:44.994Z,27.4
2019-05-06T08:44:48.033Z,27.5
2019-05-06T08:45:52.627Z,27.6
2019-05-06T08:48:26.892Z,27.4
2019-05-06T08:49:29.309Z,27.5
2019-05-06T08:50:33.941Z,27.6
2019-05-06T08:51:36.365Z,27.5
2019-05-06T08:52:38.774Z,27.5
2019-05-06T08:53:43.454Z,27.4
2019-05-06T08:54:45.880Z,27.6
2019-05-06T08:55:48.504Z,27.6
2019-05-06T08:56:52.286Z,27.4
2019-05-06T08:57:54.850Z,27.6
2019-05-06T08:58:57.261Z,27.5
2019-05-06T08:59:59.734Z,27.5
2019-05-06T09:01:05.745Z,27.6
2019-05-06T09:02:09.378Z,27.6
2019-05-06T09:03:15.993Z,27.6
2019-05-06T09:04:18.624Z,27.3
2019-05-06T09:05:23.057Z,27.4
2019-05-06T09:06:30.144Z,27.5
2019-05-06T09:07:31.958Z,27.7
2019-05-06T09:08:34.712Z,27.6
2019-05-06T09:09:36.865Z,27.6
2019-05-06T09:10:39.009Z,27.4
2019-05-06T09:11:43.461Z,27.6
2019-05-06T09:12:45.893Z,27.6
2019-05-06T09:13:48.316Z,27.5
2019-05-06T09:14:54.651Z,27.4
2019-05-06T09:15:56.526Z,27.5
2019-05-06T09:16:58.942Z,27.5
2019-05-06T09:18:03.990Z,27.5
2019-05-06T09:19:06.413Z,27.7
2019-05-06T09:20:08.688Z,27.3
2019-05-06T09:21:14.187Z,27.6
2019-05-06T09:22:16.360Z,27.6
2019-05-06T09:23:18.791Z,27.4
2019-05-06T09:24:25.218Z,27.5
2019-05-06T09:25:27.632Z,27.6
2019-05-06T09:26:29.516Z,27.5
2019-05-06T09:27:34.978Z,27.5
2019-05-06T09:28:37.401Z,27.4
2019-05-06T09:29:40.003Z,27.6
2019-05-06T09:30:44.993Z,27.5
2019-05-06T09:31:47.423Z,27.4
2019-05-06T09:32:49.566Z,27.7
2019-05-06T09:33:53.792Z,27.5
2019-05-06T09:34:56.206Z,27.7
2019-05-06T09:35:58.357Z,27.5
2019-05-06T09:37:03.248Z,27.6
2019-05-06T09:38:05.764Z,27.4
2019-05-06T09:39:08.187Z,27.5
2019-05-06T09:40:12.632Z,27.5
2019-05-06T09:41:15.138Z,27.3
2019-05-06T09:42:17.565Z,27.6
2019-05-06T09:43:22.125Z,27.5
2019-05-06T09:44:24.673Z,27.6
2019-05-06T09:45:27.287Z,27.6
2019-05-06T09:46:32.077Z,27.6
2019-05-06T09:47:34.695Z,27.4
2019-05-06T09:48:36.844Z,27.6
2019-05-06T09:49:38.994Z,27.6
2019-05-06T09:50:45.957Z,27.6
2019-05-06T09:51:48.843Z,27.6
2019-05-06T09:52:55.474Z,27.5
2019-05-06T09:54:00.255Z,27.6
2019-05-06T09:55:03.337Z,27.7
2019-05-06T09:56:05.294Z,27.6
2019-05-06T09:57:07.444Z,27.3
2019-05-06T09:58:12.172Z,27.5
2019-05-06T09:59:14.853Z,27.5
2019-05-06T10:00:17.273Z,27.4
2019-05-06T10:01:22.362Z,27.4
2019-05-06T10:02:24.693Z,27.3
2019-05-06T10:03:27.112Z,27.7
2019-05-06T10:04:29.886Z,27.5
2019-05-06T10:05:34.629Z,27.2
2019-05-06T10:06:37.054Z,27.5
2019-05-06T10:07:39.264Z,27.6
2019-05-06T10:08:41.609Z,27.5
2019-05-06T10:09:44.011Z,27.3
2019-05-06T10:10:55.531Z,27.4
2019-05-06T10:11:52.518Z,27.4
2019-05-06T10:12:54.773Z,27.6
2019-05-06T10:13:56.686Z,27.5
2019-05-06T10:14:59.103Z,27.4
2019-05-06T10:16:05.047Z,27.5
2019-05-06T10:17:07.474Z,27.4
2019-05-06T10:18:12.552Z,27.4
2019-05-06T10:19:14.595Z,27.4
2019-05-06T10:20:17.051Z,27.4
2019-05-06T10:21:19.695Z,27.4
2019-05-06T10:22:24.123Z,27.3
2019-05-06T10:23:27.228Z,27.4
2019-05-06T10:24:29.543Z,27.4
2019-05-06T10:25:34.779Z,27.6
2019-05-06T10:26:37.399Z,27.6
2019-05-06T10:27:42.004Z,27.4
2019-05-06T10:28:44.833Z,27.5
2019-05-06T10:29:47.255Z,27.3
2019-05-06T10:30:49.675Z,27.6
2019-05-06T10:31:52.461Z,27.5
2019-05-06T10:32:54.944Z,27.6
2019-05-06T10:33:57.376Z,27.5
2019-05-06T10:35:02.652Z,27.6
2019-05-06T10:36:04.902Z,27.5
2019-05-06T10:37:15.106Z,27.4
2019-05-06T10:38:12.438Z,27.4
2019-05-06T10:39:14.309Z,27.3
2019-05-06T10:40:16.734Z,27.5
2019-05-06T10:41:18.889Z,27.3
2019-05-06T10:42:24.843Z,27.6
2019-05-06T10:43:27.017Z,27.5
2019-05-06T10:44:29.598Z,27.2
2019-05-06T10:45:35.538Z,27.4
2019-05-06T10:46:37.957Z,27.3
2019-05-06T10:47:42.272Z,27.5
2019-05-06T10:48:44.510Z,27.3
2019-05-06T10:49:46.933Z,27.5
2019-05-06T10:50:49.103Z,27.5
2019-05-06T10:51:53.514Z,27.4
2019-05-06T10:52:56.339Z,27.4
2019-05-06T10:53:58.749Z,27.5
2019-05-06T10:55:05.639Z,27.5
2019-05-06T10:56:08.054Z,27.4
2019-05-06T10:57:12.389Z,27.3
2019-05-06T10:58:14.635Z,27.5
2019-05-06T10:59:17.247Z,27.3
2019-05-06T11:00:19.123Z,27.6
2019-05-06T11:01:25.266Z,27.5
2019-05-06T11:02:27.696Z,27.3
2019-05-06T11:03:29.850Z,27.4
2019-05-06T11:04:34.263Z,27.4
2019-05-06T11:05:36.150Z,27.4
2019-05-06T11:06:38.629Z,27.5
2019-05-06T11:07:45.102Z,27.2
2019-05-06T11:08:47.925Z,27.2
2019-05-06T11:09:55.035Z,27.3
2019-05-06T11:11:11.000Z,27.3
2019-05-06T11:12:03.386Z,27.5
2019-05-06T11:13:06.662Z,27.3
2019-05-06T11:14:09.082Z,27.4
2019-05-06T11:15:15.023Z,27.2
2019-05-06T11:16:17.795Z,27.4
2019-05-06T11:17:22.707Z,27.2
2019-05-06T11:18:25.224Z,27.2
2019-05-06T11:19:27.389Z,27.5
2019-05-06T11:20:29.749Z,27.4
2019-05-06T11:21:35.675Z,27.3
2019-05-06T11:22:38.425Z,27.4
2019-05-06T11:23:41.839Z,27.3
2019-05-06T11:24:44.066Z,27.4
2019-05-06T11:25:46.493Z,27.2
2019-05-06T11:26:48.920Z,27.5
2019-05-06T11:27:54.858Z,27.5
2019-05-06T11:28:57.343Z,27.5
2019-05-06T11:29:59.194Z,27.4
2019-05-06T11:31:04.655Z,27.3
2019-05-06T11:32:12.715Z,27.5
2019-05-06T11:33:15.212Z,27.5
2019-05-06T11:34:17.643Z,27.1
2019-05-06T11:35:24.532Z,27.5
2019-05-06T11:36:27.174Z,27.4
2019-05-06T11:37:43.463Z,27.3
2019-05-06T11:38:34.607Z,27.5
2019-05-06T11:39:37.044Z,27.5
2019-05-06T11:40:41.968Z,27.3
2019-05-06T11:42:01.343Z,27.3
2019-05-06T11:42:49.453Z,27.4
2019-05-06T11:43:54.897Z,27.5
2019-05-06T11:44:57.329Z,27.6
2019-05-06T11:45:59.492Z,27.4
2019-05-06T11:47:03.356Z,27.4
2019-05-06T11:48:05.653Z,27.4
2019-05-06T11:49:08.112Z,27.5
2019-05-06T11:50:15.506Z,27.5
2019-05-06T11:51:18.313Z,27.3
2019-05-06T11:52:22.596Z,27.4
2019-05-06T11:53:24.796Z,27.4
2019-05-06T11:54:27.328Z,27.2
2019-05-06T11:55:37.820Z,27.4
2019-05-06T11:56:47.696Z,27.3
2019-05-06T11:57:41.617Z,27.7
2019-05-06T11:58:46.140Z,27.7
2019-05-06T11:59:49.263Z,27.5
2019-05-06T12:00:55.217Z,27.5
2019-05-06T12:01:57.644Z,27.4
2019-05-06T12:03:02.215Z,27.4
2019-05-06T12:04:04.742Z,27.2
2019-05-06T12:05:07.161Z,27.3
2019-05-06T12:06:09.324Z,27.3
2019-05-06T12:07:16.064Z,27.5
2019-05-06T12:08:18.655Z,27.6
2019-05-06T12:09:23.419Z,27.4
2019-05-06T12:10:25.282Z,27.3
2019-05-06T12:11:27.434Z,27.2
2019-05-06T12:12:30.428Z,27.3
2019-05-06T12:13:33.669Z,27.3
2019-05-06T12:14:39.283Z,27.3
2019-05-06T12:15:45.441Z,27.4
2019-05-06T12:16:47.617Z,27.3
2019-05-06T12:17:49.578Z,27.2
2019-05-06T12:18:56.879Z,27.6
2019-05-06T12:20:02.857Z,27.4
2019-05-06T12:21:11.083Z,27.5
2019-05-06T12:22:12.438Z,27.5
2019-05-06T12:23:15.751Z,27.2
2019-05-06T12:24:18.268Z,27.3
2019-05-06T12:25:23.396Z,27.2
2019-05-06T12:26:25.418Z,27.2
2019-05-06T12:27:27.835Z,27.3
2019-05-06T12:28:29.743Z,27.3
2019-05-06T12:29:36.839Z,27.4
2019-05-06T12:30:42.586Z,27.3
2019-05-06T12:31:45.185Z,27.2
2019-05-06T12:32:47.599Z,27.6
2019-05-06T12:33:50.036Z,27.3
2019-05-06T12:34:55.486Z,27.4
2019-05-06T12:35:57.904Z,27.2
2019-05-06T12:37:04.799Z,27.4
2019-05-06T12:38:22.950Z,27.2
2019-05-06T12:39:15.676Z,27.5
2019-05-06T12:40:17.373Z,27.4
2019-05-06T12:41:19.794Z,27.4
2019-05-06T12:42:25.252Z,27.3
2019-05-06T12:43:27.854Z,27.3
2019-05-06T12:44:32.233Z,27.2
2019-05-06T12:45:34.803Z,27.4
2019-05-06T12:46:37.137Z,27.5
2019-05-06T12:47:39.673Z,27.2
2019-05-06T12:48:45.138Z,27.3
2019-05-06T12:49:47.284Z,27.4
2019-05-06T12:50:49.427Z,27.4
2019-05-06T12:51:54.888Z,27.4
2019-05-06T12:52:57.953Z,27.1
2019-05-06T12:54:03.478Z,27.3
2019-05-06T12:55:18.111Z,27.3
2019-05-06T12:56:12.373Z,27.4
2019-05-06T12:57:14.642Z,27.3
2019-05-06T12:58:20.128Z,27.2
2019-05-06T12:59:22.398Z,27.4
2019-05-06T13:00:25.229Z,27.4
2019-05-06T13:01:27.654Z,27.2
2019-05-06T13:02:32.630Z,27.1
2019-05-06T13:03:35.247Z,27.2
2019-05-06T13:04:51.073Z,27.4
2019-05-06T13:05:42.906Z,27.4
2019-05-06T13:06:46.439Z,27.4
2019-05-06T13:07:48.932Z,27.3
2019-05-06T13:09:01.261Z,27.2
2019-05-06T13:10:02.569Z,27.3
2019-05-06T13:11:05.305Z,27.4
2019-05-06T13:12:07.735Z,27.3
2019-05-06T13:13:12.215Z,27.3
2019-05-06T13:14:15.139Z,27.4
2019-05-06T13:15:17.568Z,27.6
2019-05-06T13:16:22.657Z,27.5
2019-05-06T13:17:24.976Z,27.4
2019-05-06T13:18:27.724Z,27.3
2019-05-06T13:19:32.113Z,27.2
2019-05-06T13:20:34.759Z,27.4
2019-05-06T13:21:37.223Z,27.5
2019-05-06T13:22:40.126Z,27.3
2019-05-06T13:23:42.285Z,27.5
2019-05-06T13:24:44.922Z,27.4
2019-05-06T13:25:47.343Z,27.2
2019-05-06T13:26:49.963Z,27.3
2019-05-06T13:27:54.672Z,27.4
2019-05-06T13:28:56.841Z,27.3
2019-05-06T13:29:58.999Z,27.6
2019-05-06T13:31:15.575Z,27.3
2019-05-06T13:32:09.642Z,27.4
2019-05-06T13:33:14.491Z,27.2
2019-05-06T13:34:17.492Z,27.3
2019-05-06T13:35:25.344Z,27.3
2019-05-06T13:36:27.964Z,27.3
2019-05-06T13:37:33.558Z,27.3
2019-05-06T13:38:35.990Z,27.5
2019-05-06T13:39:38.472Z,27.4
2019-05-06T13:40:53.760Z,27.3
2019-05-06T13:41:52.600Z,27.5
2019-05-06T13:42:55.494Z,27.2
2019-05-06T13:43:57.662Z,27.5
2019-05-06T13:45:02.245Z,27.7
2019-05-06T13:46:07.203Z,27.4
2019-05-06T13:47:11.929Z,27.4
2019-05-06T13:48:14.685Z,27.4
2019-05-06T13:49:17.119Z,27.4
2019-05-06T13:50:19.551Z,27.4
2019-05-06T13:51:25.484Z,27.3
2019-05-06T13:52:27.905Z,27.4
2019-05-06T13:55:05.079Z,27.4
2019-05-06T13:56:07.508Z,27.4
2019-05-06T13:57:12.124Z,27.5
2019-05-06T13:58:14.941Z,27.4
2019-05-06T13:59:17.366Z,27.6
2019-05-06T14:00:19.499Z,27.3
2019-05-06T14:01:24.962Z,27.2
2019-05-06T14:02:26.851Z,27.4
2019-05-06T14:03:29.011Z,27.4
2019-05-06T14:04:34.269Z,27.2
2019-05-06T14:05:36.695Z,27.4
2019-05-06T14:06:38.841Z,27.4
2019-05-06T14:07:45.938Z,27.4
2019-05-06T14:08:48.429Z,27.4
2019-05-06T14:09:55.334Z,27.4
2019-05-06T14:11:00.004Z,27.4
2019-05-06T14:12:04.860Z,27.6
2019-05-06T14:13:07.394Z,27.5
2019-05-06T14:14:11.930Z,27.6